sensor_id;sensor_type;location;lat;lon;timestamp;pressure;altitude;pressure_sealevel;temperature;humidity
15568;BME280;7885;42.596;23.044;2022-12-10T00:00:25;92354.53;;;11.73;100.00
15568;BME280;7885;42.596;23.044;2022-12-10T00:02:52;92352.56;;;11.74;100.00
15568;BME280;7885;42.596;23.044;2022-12-10T00:05:21;92344.13;;;11.64;100.00
15568;BME280;7885;42.596;23.044;2022-12-10T00:07:48;92328.25;;;11.59;100.00
15568;BME280;7885;42.596;23.044;2022-12-10T00:10:14;92344.41;;;11.70;100.00
15568;BME280;7885;42.596;23.044;2022-12-10T00:12:41;92340.75;;;11.57;100.00
15568;BME280;7885;42.596;23.044;2022-12-10T00:15:08;92334.00;;;11.65;100.00
15568;BME280;7885;42.596;23.044;2022-12-10T00:17:35;92320.19;;;11.52;100.00
15568;BME280;7885;42.596;23.044;2022-12-10T00:20:02;92344.41;;;11.70;100.00
15568;BME280;7885;42.596;23.044;2022-12-10T00:22:30;92323.38;;;11.74;100.00
15568;BME280;7885;42.596;23.044;2022-12-10T00:24:57;92329.59;;;11.75;100.00
15568;BME280;7885;42.596;23.044;2022-12-10T00:27:24;92328.75;;;11.78;100.00
15568;BME280;7885;42.596;23.044;2022-12-10T00:29:50;92329.09;;;11.80;100.00
15568;BME280;7885;42.596;23.044;2022-12-10T00:32:17;92332.41;;;11.91;100.00
15568;BME280;7885;42.596;23.044;2022-12-10T00:34:44;92317.59;;;11.92;100.00
15568;BME280;7885;42.596;23.044;2022-12-10T00:37:11;92337.03;;;11.94;100.00
15568;BME280;7885;42.596;23.044;2022-12-10T00:39:39;92332.41;;;11.91;100.00
15568;BME280;7885;42.596;23.044;2022-12-10T00:42:06;92326.13;;;11.94;100.00
15568;BME280;7885;42.596;23.044;2022-12-10T00:44:32;92325.41;;;11.90;100.00
15568;BME280;7885;42.596;23.044;2022-12-10T00:46:59;92323.19;;;11.85;100.00
15568;BME280;7885;42.596;23.044;2022-12-10T00:49:26;92351.88;;;11.93;100.00
15568;BME280;7885;42.596;23.044;2022-12-10T00:51:52;92363.91;;;11.95;100.00
15568;BME280;7885;42.596;23.044;2022-12-10T00:54:19;92350.25;;;11.95;100.00
15568;BME280;7885;42.596;23.044;2022-12-10T00:56:48;92360.47;;;11.91;100.00
15568;BME280;7885;42.596;23.044;2022-12-10T00:59:17;92340.38;;;11.82;100.00
15568;BME280;7885;42.596;23.044;2022-12-10T01:01:44;92362.06;;;11.89;100.00
15568;BME280;7885;42.596;23.044;2022-12-10T01:04:12;92362.91;;;11.86;100.00
15568;BME280;7885;42.596;23.044;2022-12-10T01:06:42;92365.31;;;11.80;100.00
15568;BME280;7885;42.596;23.044;2022-12-10T01:09:11;92390.28;;;11.79;100.00
15568;BME280;7885;42.596;23.044;2022-12-10T01:11:39;92350.69;;;11.71;100.00
15568;BME280;7885;42.596;23.044;2022-12-10T01:14:10;92346.91;;;11.61;100.00
15568;BME280;7885;42.596;23.044;2022-12-10T01:16:37;92336.41;;;11.59;100.00
15568;BME280;7885;42.596;23.044;2022-12-10T01:19:05;92329.06;;;11.56;100.00
15568;BME280;7885;42.596;23.044;2022-12-10T01:21:31;92334.94;;;11.55;100.00
15568;BME280;7885;42.596;23.044;2022-12-10T01:23:59;92338.13;;;11.50;100.00
15568;BME280;7885;42.596;23.044;2022-12-10T01:26:28;92337.03;;;11.47;100.00
15568;BME280;7885;42.596;23.044;2022-12-10T01:28:55;92311.28;;;11.25;100.00
15568;BME280;7885;42.596;23.044;2022-12-10T01:31:25;92348.56;;;11.55;100.00
15568;BME280;7885;42.596;23.044;2022-12-10T01:33:53;92347.81;;;11.54;100.00
15568;BME280;7885;42.596;23.044;2022-12-10T01:36:24;92343.00;;;11.62;100.00
15568;BME280;7885;42.596;23.044;2022-12-10T01:38:51;92341.75;;;11.66;100.00
15568;BME280;7885;42.596;23.044;2022-12-10T01:41:21;92339.16;;;11.59;100.00
15568;BME280;7885;42.596;23.044;2022-12-10T01:43:54;92340.81;;;11.53;100.00
15568;BME280;7885;42.596;23.044;2022-12-10T01:46:28;92337.75;;;11.75;100.00
15568;BME280;7885;42.596;23.044;2022-12-10T01:48:56;92337.84;;;11.68;100.00
15568;BME280;7885;42.596;23.044;2022-12-10T01:51:24;92359.56;;;11.75;100.00
15568;BME280;7885;42.596;23.044;2022-12-10T01:53:51;92340.16;;;11.69;100.00
15568;BME280;7885;42.596;23.044;2022-12-10T01:56:19;92343.94;;;11.79;100.00
15568;BME280;7885;42.596;23.044;2022-12-10T01:58:48;92342.66;;;11.83;100.00
15568;BME280;7885;42.596;23.044;2022-12-10T02:01:22;92330.13;;;11.89;100.00
15568;BME280;7885;42.596;23.044;2022-12-10T02:04:14;92327.78;;;11.88;100.00
15568;BME280;7885;42.596;23.044;2022-12-10T02:06:48;92327.69;;;11.95;100.00
15568;BME280;7885;42.596;23.044;2022-12-10T02:09:24;92321.88;;;11.93;100.00
15568;BME280;7885;42.596;23.044;2022-12-10T02:12:01;92346.50;;;12.09;100.00
15568;BME280;7885;42.596;23.044;2022-12-10T02:14:43;92319.56;;;12.11;100.00
15568;BME280;7885;42.596;23.044;2022-12-10T02:17:15;92337.41;;;12.15;100.00
15568;BME280;7885;42.596;23.044;2022-12-10T02:19:59;92346.84;;;12.11;100.00
15568;BME280;7885;42.596;23.044;2022-12-10T02:22:32;92334.31;;;12.13;100.00
15568;BME280;7885;42.596;23.044;2022-12-10T02:25:00;92311.75;;;12.13;100.00
15568;BME280;7885;42.596;23.044;2022-12-10T02:27:33;92310.16;;;12.15;100.00
15568;BME280;7885;42.596;23.044;2022-12-10T02:30:06;92296.91;;;12.14;100.00
15568;BME280;7885;42.596;23.044;2022-12-10T02:32:35;92306.09;;;12.24;99.81
15568;BME280;7885;42.596;23.044;2022-12-10T02:35:07;92299.88;;;12.23;99.74
15568;BME280;7885;42.596;23.044;2022-12-10T02:37:39;92284.50;;;12.13;99.66
15568;BME280;7885;42.596;23.044;2022-12-10T02:40:13;92336.66;;;12.15;99.96
15568;BME280;7885;42.596;23.044;2022-12-10T02:42:43;92307.50;;;12.12;100.00
15568;BME280;7885;42.596;23.044;2022-12-10T02:45:12;92329.66;;;12.14;100.00
15568;BME280;7885;42.596;23.044;2022-12-10T02:47:39;92304.81;;;12.08;100.00
15568;BME280;7885;42.596;23.044;2022-12-10T02:50:10;92290.84;;;12.06;100.00
15568;BME280;7885;42.596;23.044;2022-12-10T02:52:39;92307.97;;;12.07;100.00
15568;BME280;7885;42.596;23.044;2022-12-10T02:55:06;92285.59;;;11.96;100.00
15568;BME280;7885;42.596;23.044;2022-12-10T02:57:37;92311.19;;;12.02;100.00
15568;BME280;7885;42.596;23.044;2022-12-10T03:00:12;92293.97;;;12.05;100.00
15568;BME280;7885;42.596;23.044;2022-12-10T03:03:04;92309.28;;;11.99;100.00
15568;BME280;7885;42.596;23.044;2022-12-10T03:05:43;92315.09;;;12.01;100.00
15568;BME280;7885;42.596;23.044;2022-12-10T03:08:15;92313.53;;;12.00;100.00
15568;BME280;7885;42.596;23.044;2022-12-10T03:10:49;92313.19;;;11.98;100.00
15568;BME280;7885;42.596;23.044;2022-12-10T03:13:21;92290.47;;;11.85;100.00
15568;BME280;7885;42.596;23.044;2022-12-10T03:15:53;92281.91;;;11.83;100.00
15568;BME280;7885;42.596;23.044;2022-12-10T03:18:22;92300.53;;;11.88;100.00
15568;BME280;7885;42.596;23.044;2022-12-10T03:20:52;92312.34;;;11.81;100.00
15568;BME280;7885;42.596;23.044;2022-12-10T03:23:21;92288.19;;;11.80;100.00
15568;BME280;7885;42.596;23.044;2022-12-10T03:25:50;92282.47;;;11.74;100.00
15568;BME280;7885;42.596;23.044;2022-12-10T03:28:18;92302.66;;;11.77;100.00
15568;BME280;7885;42.596;23.044;2022-12-10T03:30:47;92294.56;;;11.73;100.00
15568;BME280;7885;42.596;23.044;2022-12-10T03:33:15;92304.03;;;11.65;100.00
15568;BME280;7885;42.596;23.044;2022-12-10T03:35:43;92298.53;;;11.69;100.00
15568;BME280;7885;42.596;23.044;2022-12-10T03:38:11;92274.34;;;11.71;100.00
15568;BME280;7885;42.596;23.044;2022-12-10T03:40:39;92276.69;;;11.72;100.00
15568;BME280;7885;42.596;23.044;2022-12-10T03:43:06;92272.00;;;11.69;100.00
15568;BME280;7885;42.596;23.044;2022-12-10T03:45:33;92268.41;;;11.76;100.00
15568;BME280;7885;42.596;23.044;2022-12-10T03:48:00;92284.44;;;11.74;100.00
15568;BME280;7885;42.596;23.044;2022-12-10T03:50:28;92273.47;;;11.77;100.00
15568;BME280;7885;42.596;23.044;2022-12-10T03:52:54;92263.34;;;11.78;100.00
15568;BME280;7885;42.596;23.044;2022-12-10T03:55:21;92269.50;;;11.82;100.00
15568;BME280;7885;42.596;23.044;2022-12-10T03:57:48;92268.72;;;11.81;100.00
15568;BME280;7885;42.596;23.044;2022-12-10T04:00:15;92267.03;;;11.87;100.00
15568;BME280;7885;42.596;23.044;2022-12-10T04:02:42;92270.13;;;11.89;100.00
15568;BME280;7885;42.596;23.044;2022-12-10T04:05:09;92269.22;;;11.96;100.00
15568;BME280;7885;42.596;23.044;2022-12-10T04:07:37;92264.97;;;11.95;100.00
15568;BME280;7885;42.596;23.044;2022-12-10T04:10:05;92263.47;;;11.90;100.00
15568;BME280;7885;42.596;23.044;2022-12-10T04:12:32;92287.09;;;11.97;100.00
15568;BME280;7885;42.596;23.044;2022-12-10T04:14:59;92286.28;;;12.00;100.00
15568;BME280;7885;42.596;23.044;2022-12-10T04:17:43;92288.88;;;12.07;100.00
15568;BME280;7885;42.596;23.044;2022-12-10T04:20:10;92285.81;;;12.05;100.00
15568;BME280;7885;42.596;23.044;2022-12-10T04:22:58;92288.41;;;12.12;100.00
15568;BME280;7885;42.596;23.044;2022-12-10T04:25:42;92288.81;;;12.10;100.00
15568;BME280;7885;42.596;23.044;2022-12-10T04:28:27;92293.91;;;12.08;100.00
15568;BME280;7885;42.596;23.044;2022-12-10T04:30:54;92297.13;;;12.03;100.00
15568;BME280;7885;42.596;23.044;2022-12-10T04:33:20;92304.47;;;12.06;100.00
15568;BME280;7885;42.596;23.044;2022-12-10T04:35:47;92291.25;;;12.05;100.00
15568;BME280;7885;42.596;23.044;2022-12-10T04:38:15;92293.97;;;12.05;100.00
15568;BME280;7885;42.596;23.044;2022-12-10T04:40:42;92288.59;;;12.01;100.00
15568;BME280;7885;42.596;23.044;2022-12-10T04:43:09;92288.66;;;11.98;100.00
15568;BME280;7885;42.596;23.044;2022-12-10T04:45:35;92289.00;;;12.00;100.00
15568;BME280;7885;42.596;23.044;2022-12-10T04:48:02;92290.53;;;12.01;100.00
15568;BME280;7885;42.596;23.044;2022-12-10T04:50:29;92286.97;;;12.04;100.00
15568;BME280;7885;42.596;23.044;2022-12-10T04:52:56;92285.09;;;12.01;100.00
15568;BME280;7885;42.596;23.044;2022-12-10T04:55:24;92280.88;;;11.96;100.00
15568;BME280;7885;42.596;23.044;2022-12-10T04:57:51;92270.41;;;11.95;100.00
15568;BME280;7885;42.596;23.044;2022-12-10T05:00:18;92269.31;;;11.92;100.00
15568;BME280;7885;42.596;23.044;2022-12-10T05:02:48;92273.25;;;11.88;100.00
15568;BME280;7885;42.596;23.044;2022-12-10T05:05:15;92293.53;;;11.87;100.00
15568;BME280;7885;42.596;23.044;2022-12-10T05:07:41;92246.72;;;11.69;100.00
15568;BME280;7885;42.596;23.044;2022-12-10T05:10:08;92258.22;;;11.80;100.00
15568;BME280;7885;42.596;23.044;2022-12-10T05:12:36;92267.09;;;11.84;100.00
15568;BME280;7885;42.596;23.044;2022-12-10T05:15:04;92267.81;;;11.88;100.00
15568;BME280;7885;42.596;23.044;2022-12-10T05:17:32;92261.31;;;11.82;100.00
15568;BME280;7885;42.596;23.044;2022-12-10T05:19:59;92263.91;;;11.89;100.00
15568;BME280;7885;42.596;23.044;2022-12-10T05:22:25;92273.59;;;11.90;100.00
15568;BME280;7885;42.596;23.044;2022-12-10T05:25:21;92276.34;;;11.90;100.00
15568;BME280;7885;42.596;23.044;2022-12-10T05:27:49;92276.63;;;11.95;100.00
15568;BME280;7885;42.596;23.044;2022-12-10T05:30:15;92288.31;;;11.96;100.00
15568;BME280;7885;42.596;23.044;2022-12-10T05:32:42;92252.38;;;11.81;100.00
15568;BME280;7885;42.596;23.044;2022-12-10T05:35:09;92277.81;;;11.94;100.00
15568;BME280;7885;42.596;23.044;2022-12-10T05:37:36;92278.09;;;12.00;100.00
15568;BME280;7885;42.596;23.044;2022-12-10T05:40:03;92272.63;;;12.00;100.00
15568;BME280;7885;42.596;23.044;2022-12-10T05:42:30;92276.91;;;12.01;100.00
15568;BME280;7885;42.596;23.044;2022-12-10T05:44:58;92279.63;;;12.01;100.00
15568;BME280;7885;42.596;23.044;2022-12-10T05:47:25;92271.47;;;12.01;100.00
15568;BME280;7885;42.596;23.044;2022-12-10T05:49:51;92278.47;;;12.02;100.00
15568;BME280;7885;42.596;23.044;2022-12-10T05:52:18;92283.13;;;12.01;100.00
15568;BME280;7885;42.596;23.044;2022-12-10T05:54:45;92280.00;;;12.03;100.00
15568;BME280;7885;42.596;23.044;2022-12-10T05:57:12;92293.28;;;12.01;100.00
15568;BME280;7885;42.596;23.044;2022-12-10T05:59:38;92300.22;;;12.05;100.00
15568;BME280;7885;42.596;23.044;2022-12-10T06:02:06;92284.69;;;12.02;100.00
15568;BME280;7885;42.596;23.044;2022-12-10T06:04:33;92286.28;;;12.00;100.00
15568;BME280;7885;42.596;23.044;2022-12-10T06:07:00;92286.97;;;12.04;100.00
15568;BME280;7885;42.596;23.044;2022-12-10T06:09:26;92281.66;;;11.97;100.00
15568;BME280;7885;42.596;23.044;2022-12-10T06:11:53;92286.97;;;12.04;100.00
15568;BME280;7885;42.596;23.044;2022-12-10T06:14:20;92282.28;;;12.04;100.00
15568;BME280;7885;42.596;23.044;2022-12-10T06:16:47;92273.13;;;12.14;100.00
15568;BME280;7885;42.596;23.044;2022-12-10T06:19:15;92271.53;;;12.17;100.00
15568;BME280;7885;42.596;23.044;2022-12-10T06:21:41;92249.44;;;12.11;100.00
15568;BME280;7885;42.596;23.044;2022-12-10T06:24:08;92261.69;;;12.23;99.75
15568;BME280;7885;42.596;23.044;2022-12-10T06:26:35;92254.13;;;12.11;100.00
15568;BME280;7885;42.596;23.044;2022-12-10T06:29:02;92225.81;;;12.05;100.00
15568;BME280;7885;42.596;23.044;2022-12-10T06:31:30;92296.66;;;12.28;100.00
15568;BME280;7885;42.596;23.044;2022-12-10T06:33:56;92280.34;;;12.25;99.42
15568;BME280;7885;42.596;23.044;2022-12-10T06:36:24;92299.44;;;12.25;100.00
15568;BME280;7885;42.596;23.044;2022-12-10T06:38:51;92286.31;;;12.20;100.00
15568;BME280;7885;42.596;23.044;2022-12-10T06:41:18;92299.75;;;12.30;100.00
15568;BME280;7885;42.596;23.044;2022-12-10T06:50:36;92322.25;;;12.34;100.00
15568;BME280;7885;42.596;23.044;2022-12-10T06:53:04;92324.63;;;12.32;100.00
15568;BME280;7885;42.596;23.044;2022-12-10T06:55:31;92319.69;;;12.27;100.00
15568;BME280;7885;42.596;23.044;2022-12-10T06:57:58;92306.72;;;12.31;100.00
15568;BME280;7885;42.596;23.044;2022-12-10T07:00:25;92323.31;;;12.40;100.00
15568;BME280;7885;42.596;23.044;2022-12-10T07:02:51;92318.00;;;12.33;99.53
15568;BME280;7885;42.596;23.044;2022-12-10T07:05:18;92306.94;;;12.40;100.00
15568;BME280;7885;42.596;23.044;2022-12-10T07:07:45;92288.81;;;12.30;100.00
15568;BME280;7885;42.596;23.044;2022-12-10T07:10:13;92292.59;;;12.36;100.00
15568;BME280;7885;42.596;23.044;2022-12-10T07:12:40;92284.88;;;12.31;100.00
15568;BME280;7885;42.596;23.044;2022-12-10T07:15:08;92285.81;;;12.25;100.00
15568;BME280;7885;42.596;23.044;2022-12-10T07:17:35;92288.97;;;12.23;100.00
15568;BME280;7885;42.596;23.044;2022-12-10T07:23:26;92285.03;;;12.24;100.00
15568;BME280;7885;42.596;23.044;2022-12-10T07:25:55;92292.53;;;12.20;100.00
15568;BME280;7885;42.596;23.044;2022-12-10T07:28:22;92293.78;;;12.15;100.00
15568;BME280;7885;42.596;23.044;2022-12-10T07:30:48;92279.09;;;12.09;100.00
15568;BME280;7885;42.596;23.044;2022-12-10T07:33:15;92291.47;;;12.14;100.00
15568;BME280;7885;42.596;23.044;2022-12-10T07:35:42;92297.63;;;12.18;100.00
15568;BME280;7885;42.596;23.044;2022-12-10T07:38:08;92292.88;;;12.22;100.00
15568;BME280;7885;42.596;23.044;2022-12-10T07:40:35;92321.00;;;12.19;100.00
15568;BME280;7885;42.596;23.044;2022-12-10T07:43:03;92253.47;;;12.03;100.00
15568;BME280;7885;42.596;23.044;2022-12-10T07:45:30;92294.31;;;12.07;100.00
15568;BME280;7885;42.596;23.044;2022-12-10T07:47:57;92303.59;;;12.13;100.00
15568;BME280;7885;42.596;23.044;2022-12-10T07:50:23;92293.41;;;12.13;100.00
15568;BME280;7885;42.596;23.044;2022-12-10T07:52:50;92290.63;;;12.17;100.00
15568;BME280;7885;42.596;23.044;2022-12-10T07:55:17;92295.13;;;12.27;100.00
15568;BME280;7885;42.596;23.044;2022-12-10T07:57:43;92297.84;;;12.27;100.00
15568;BME280;7885;42.596;23.044;2022-12-10T08:00:13;92275.31;;;12.23;100.00
15568;BME280;7885;42.596;23.044;2022-12-10T08:02:39;92245.53;;;12.12;100.00
15568;BME280;7885;42.596;23.044;2022-12-10T08:05:07;92262.59;;;12.36;100.00
15568;BME280;7885;42.596;23.044;2022-12-10T08:07:34;92286.94;;;12.47;100.00
15568;BME280;7885;42.596;23.044;2022-12-10T08:10:00;92266.56;;;12.51;100.00
15568;BME280;7885;42.596;23.044;2022-12-10T08:12:27;92261.78;;;12.55;100.00
15568;BME280;7885;42.596;23.044;2022-12-10T08:14:54;92288.22;;;12.58;100.00
15568;BME280;7885;42.596;23.044;2022-12-10T08:17:22;92277.78;;;12.73;100.00
15568;BME280;7885;42.596;23.044;2022-12-10T08:19:49;92270.94;;;13.01;98.16
15568;BME280;7885;42.596;23.044;2022-12-10T08:22:16;92254.00;;;12.90;98.22
15568;BME280;7885;42.596;23.044;2022-12-10T08:24:42;92267.16;;;12.95;97.77
15568;BME280;7885;42.596;23.044;2022-12-10T08:27:09;92249.44;;;13.03;97.51
15568;BME280;7885;42.596;23.044;2022-12-10T08:29:36;92234.44;;;13.27;96.83
15568;BME280;7885;42.596;23.044;2022-12-10T08:32:03;92265.69;;;13.26;95.86
15568;BME280;7885;42.596;23.044;2022-12-10T08:34:31;92240.75;;;13.24;94.87
15568;BME280;7885;42.596;23.044;2022-12-10T08:36:58;92271.00;;;13.33;95.07
15568;BME280;7885;42.596;23.044;2022-12-10T08:39:24;92254.50;;;13.37;95.22
15568;BME280;7885;42.596;23.044;2022-12-10T08:41:51;92252.19;;;13.51;95.55
15568;BME280;7885;42.596;23.044;2022-12-10T08:44:18;92275.59;;;13.36;94.84
15568;BME280;7885;42.596;23.044;2022-12-10T08:46:45;92265.84;;;13.19;95.54
15568;BME280;7885;42.596;23.044;2022-12-10T08:49:11;92276.53;;;13.30;94.72
15568;BME280;7885;42.596;23.044;2022-12-10T08:51:40;92273.50;;;13.08;96.09
15568;BME280;7885;42.596;23.044;2022-12-10T08:54:06;92249.00;;;13.04;96.15
15568;BME280;7885;42.596;23.044;2022-12-10T08:56:33;92236.19;;;13.01;96.55
15568;BME280;7885;42.596;23.044;2022-12-10T08:59:00;92251.31;;;13.06;96.29
15568;BME280;7885;42.596;23.044;2022-12-10T09:01:26;92230.56;;;13.08;96.24
15568;BME280;7885;42.596;23.044;2022-12-10T09:03:53;92230.84;;;13.14;95.87
15568;BME280;7885;42.596;23.044;2022-12-10T09:06:22;92216.22;;;13.21;95.70
15568;BME280;7885;42.596;23.044;2022-12-10T09:08:52;92216.25;;;13.37;94.81
15568;BME280;7885;42.596;23.044;2022-12-10T09:11:21;92204.09;;;13.38;93.67
15568;BME280;7885;42.596;23.044;2022-12-10T09:13:48;92210.63;;;13.73;92.39
15568;BME280;7885;42.596;23.044;2022-12-10T09:16:15;92221.91;;;13.75;91.11
15568;BME280;7885;42.596;23.044;2022-12-10T09:18:42;92195.50;;;13.97;90.88
15568;BME280;7885;42.596;23.044;2022-12-10T09:21:12;92164.75;;;14.34;88.28
15568;BME280;7885;42.596;23.044;2022-12-10T09:23:39;92208.28;;;14.83;86.12
15568;BME280;7885;42.596;23.044;2022-12-10T09:26:09;92160.75;;;14.77;85.94
15568;BME280;7885;42.596;23.044;2022-12-10T09:31:57;92139.94;;;15.39;82.63
15568;BME280;7885;42.596;23.044;2022-12-10T09:34:24;92153.38;;;15.58;82.58
15568;BME280;7885;42.596;23.044;2022-12-10T09:36:50;92133.78;;;15.82;80.37
15568;BME280;7885;42.596;23.044;2022-12-10T09:39:17;92183.31;;;15.65;81.00
15568;BME280;7885;42.596;23.044;2022-12-10T09:42:16;92172.91;;;15.60;82.52
15568;BME280;7885;42.596;23.044;2022-12-10T09:44:54;92171.94;;;15.89;80.33
15568;BME280;7885;42.596;23.044;2022-12-10T09:47:30;92169.38;;;16.38;79.85
15568;BME280;7885;42.596;23.044;2022-12-10T09:50:02;92188.78;;;16.22;79.50
15568;BME280;7885;42.596;23.044;2022-12-10T09:52:36;92182.78;;;15.45;81.71
15568;BME280;7885;42.596;23.044;2022-12-10T09:55:08;92164.13;;;15.06;83.39
15568;BME280;7885;42.596;23.044;2022-12-10T09:57:40;92184.41;;;14.83;84.78
15568;BME280;7885;42.596;23.044;2022-12-10T10:00:21;92197.13;;;14.23;86.94
15568;BME280;7885;42.596;23.044;2022-12-10T10:02:50;92179.91;;;14.10;87.67
15568;BME280;7885;42.596;23.044;2022-12-10T10:05:20;92183.44;;;14.23;87.12
15568;BME280;7885;42.596;23.044;2022-12-10T10:07:51;92168.72;;;14.04;88.94
15568;BME280;7885;42.596;23.044;2022-12-10T10:10:23;92159.91;;;14.13;88.50
15568;BME280;7885;42.596;23.044;2022-12-10T10:12:54;92161.81;;;14.41;86.73
15568;BME280;7885;42.596;23.044;2022-12-10T10:15:27;92165.91;;;14.21;86.75
15568;BME280;7885;42.596;23.044;2022-12-10T10:17:57;92133.81;;;14.08;87.79
15568;BME280;7885;42.596;23.044;2022-12-10T10:20:24;92141.25;;;14.08;87.40
15568;BME280;7885;42.596;23.044;2022-12-10T10:22:52;92132.09;;;14.14;87.99
15568;BME280;7885;42.596;23.044;2022-12-10T10:25:22;92133.63;;;14.28;86.80
15568;BME280;7885;42.596;23.044;2022-12-10T10:27:49;92129.28;;;14.31;86.93
15568;BME280;7885;42.596;23.044;2022-12-10T10:30:23;92115.28;;;14.54;86.83
15568;BME280;7885;42.596;23.044;2022-12-10T10:32:51;92119.56;;;14.68;85.88
15568;BME280;7885;42.596;23.044;2022-12-10T10:35:30;92116.47;;;14.65;86.08
15568;BME280;7885;42.596;23.044;2022-12-10T10:38:00;92142.66;;;14.79;84.69
15568;BME280;7885;42.596;23.044;2022-12-10T10:40:30;92123.28;;;14.74;85.56
15568;BME280;7885;42.596;23.044;2022-12-10T10:42:59;92119.66;;;14.89;84.23
15568;BME280;7885;42.596;23.044;2022-12-10T10:45:38;92128.09;;;14.82;84.97
15568;BME280;7885;42.596;23.044;2022-12-10T10:48:10;92130.94;;;14.53;86.01
15568;BME280;7885;42.596;23.044;2022-12-10T10:50:40;92122.28;;;14.42;87.11
15568;BME280;7885;42.596;23.044;2022-12-10T10:53:25;92114.41;;;14.44;86.92
15568;BME280;7885;42.596;23.044;2022-12-10T10:55:55;92096.69;;;14.61;86.82
15568;BME280;7885;42.596;23.044;2022-12-10T10:58:23;92079.13;;;14.59;86.88
15568;BME280;7885;42.596;23.044;2022-12-10T11:00:57;92083.31;;;14.63;85.85
15568;BME280;7885;42.596;23.044;2022-12-10T11:03:26;92063.78;;;14.74;85.44
15568;BME280;7885;42.596;23.044;2022-12-10T11:05:53;92078.03;;;14.69;84.85
15568;BME280;7885;42.596;23.044;2022-12-10T11:08:25;92080.00;;;14.81;85.50
15568;BME280;7885;42.596;23.044;2022-12-10T11:10:57;92049.75;;;14.85;85.00
15568;BME280;7885;42.596;23.044;2022-12-10T11:13:28;92038.44;;;14.83;85.08
15568;BME280;7885;42.596;23.044;2022-12-10T11:15:59;92011.69;;;14.65;83.71
15568;BME280;7885;42.596;23.044;2022-12-10T11:18:30;92021.28;;;14.70;83.89
15568;BME280;7885;42.596;23.044;2022-12-10T11:20:59;92038.97;;;14.90;85.21
15568;BME280;7885;42.596;23.044;2022-12-10T11:23:28;92045.47;;;14.84;84.85
15568;BME280;7885;42.596;23.044;2022-12-10T11:26:00;92059.19;;;14.58;84.76
15568;BME280;7885;42.596;23.044;2022-12-10T11:28:40;92031.72;;;14.49;85.46
15568;BME280;7885;42.596;23.044;2022-12-10T11:31:23;92060.09;;;14.43;86.70
15568;BME280;7885;42.596;23.044;2022-12-10T11:33:58;92059.44;;;14.39;86.62
15568;BME280;7885;42.596;23.044;2022-12-10T11:36:35;92053.19;;;14.38;86.93
15568;BME280;7885;42.596;23.044;2022-12-10T11:39:14;92044.00;;;14.45;86.52
15568;BME280;7885;42.596;23.044;2022-12-10T11:41:49;92049.38;;;14.36;86.68
15568;BME280;7885;42.596;23.044;2022-12-10T11:44:23;92036.22;;;14.31;87.22
15568;BME280;7885;42.596;23.044;2022-12-10T11:47:04;92029.78;;;14.37;87.52
15568;BME280;7885;42.596;23.044;2022-12-10T11:49:39;92029.66;;;14.41;87.94
15568;BME280;7885;42.596;23.044;2022-12-10T11:52:19;92014.78;;;14.16;88.45
15568;BME280;7885;42.596;23.044;2022-12-10T11:54:58;92034.34;;;14.15;88.97
15568;BME280;7885;42.596;23.044;2022-12-10T11:57:45;92025.16;;;14.09;89.64
15568;BME280;7885;42.596;23.044;2022-12-10T12:00:19;92010.94;;;14.01;89.47
15568;BME280;7885;42.596;23.044;2022-12-10T12:03:07;92017.28;;;14.11;89.45
15568;BME280;7885;42.596;23.044;2022-12-10T12:05:51;92016.72;;;14.16;89.60
15568;BME280;7885;42.596;23.044;2022-12-10T12:08:27;92005.66;;;14.07;89.49
15568;BME280;7885;42.596;23.044;2022-12-10T12:11:17;92007.22;;;14.08;90.28
15568;BME280;7885;42.596;23.044;2022-12-10T12:13:54;91990.25;;;14.00;90.50
15568;BME280;7885;42.596;23.044;2022-12-10T12:16:27;91992.66;;;13.98;90.33
15568;BME280;7885;42.596;23.044;2022-12-10T12:18:59;91983.78;;;13.94;90.84
15568;BME280;7885;42.596;23.044;2022-12-10T12:21:26;91981.47;;;13.93;91.38
15568;BME280;7885;42.596;23.044;2022-12-10T12:23:55;91973.63;;;13.95;91.09
15568;BME280;7885;42.596;23.044;2022-12-10T12:26:27;91953.16;;;13.87;91.51
15568;BME280;7885;42.596;23.044;2022-12-10T12:28:59;91956.13;;;13.92;90.56
15568;BME280;7885;42.596;23.044;2022-12-10T12:31:31;91932.03;;;13.87;90.50
15568;BME280;7885;42.596;23.044;2022-12-10T12:34:05;91922.75;;;13.85;90.93
15568;BME280;7885;42.596;23.044;2022-12-10T12:36:34;91928.88;;;13.76;90.23
15568;BME280;7885;42.596;23.044;2022-12-10T12:39:07;91916.41;;;13.62;90.26
15568;BME280;7885;42.596;23.044;2022-12-10T12:41:43;91950.84;;;13.73;89.41
15568;BME280;7885;42.596;23.044;2022-12-10T12:44:18;91958.41;;;13.69;89.28
15568;BME280;7885;42.596;23.044;2022-12-10T12:46:46;91940.78;;;13.70;89.05
15568;BME280;7885;42.596;23.044;2022-12-10T12:49:20;91963.13;;;13.68;89.00
15568;BME280;7885;42.596;23.044;2022-12-10T12:51:53;91931.81;;;13.56;88.78
15568;BME280;7885;42.596;23.044;2022-12-10T12:54:22;91929.97;;;13.66;89.46
15568;BME280;7885;42.596;23.044;2022-12-10T12:56:57;91934.56;;;13.69;88.60
15568;BME280;7885;42.596;23.044;2022-12-10T12:59:36;91921.09;;;13.62;88.47
15568;BME280;7885;42.596;23.044;2022-12-10T13:02:17;91948.69;;;13.68;88.40
15568;BME280;7885;42.596;23.044;2022-12-10T13:08:24;91940.91;;;13.53;89.58
15568;BME280;7885;42.596;23.044;2022-12-10T13:10:57;91931.16;;;13.52;89.87
15568;BME280;7885;42.596;23.044;2022-12-10T13:13:30;91884.16;;;13.32;90.14
15568;BME280;7885;42.596;23.044;2022-12-10T13:16:35;91914.75;;;13.52;90.11
15568;BME280;7885;42.596;23.044;2022-12-10T13:19:25;91904.91;;;13.42;90.35
15568;BME280;7885;42.596;23.044;2022-12-10T13:22:04;91909.63;;;13.42;90.88
15568;BME280;7885;42.596;23.044;2022-12-10T13:27:37;91868.94;;;13.31;90.73
15568;BME280;7885;42.596;23.044;2022-12-10T13:30:27;91887.84;;;13.38;90.98